sensor_id;sensor_type;location;lat;lon;timestamp;pressure;altitude;pressure_sealevel;temperature
14023;BMP180;7086;48.116;11.580;2023-02-16T00:39:39;96246.00;;;5.20
14023;BMP180;7086;48.116;11.580;2023-02-16T00:42:19;96162.00;;;5.10
14023;BMP180;7086;48.116;11.580;2023-02-16T00:45:00;96148.00;;;5.10
14023;BMP180;7086;48.116;11.580;2023-02-16T00:47:34;96258.00;;;5.20
14023;BMP180;7086;48.116;11.580;2023-02-16T00:50:09;96200.00;;;5.20
14023;BMP180;7086;48.116;11.580;2023-02-16T00:52:41;96255.00;;;5.00
14023;BMP180;7086;48.116;11.580;2023-02-16T00:55:15;96234.00;;;5.10
14023;BMP180;7086;48.116;11.580;2023-02-16T00:57:51;96252.00;;;5.10
14023;BMP180;7086;48.116;11.580;2023-02-16T01:00:26;96214.00;;;5.30
14023;BMP180;7086;48.116;11.580;2023-02-16T01:03:00;96207.00;;;4.90
14023;BMP180;7086;48.116;11.580;2023-02-16T01:05:29;96171.00;;;5.30
14023;BMP180;7086;48.116;11.580;2023-02-16T01:07:57;96252.00;;;5.10
14023;BMP180;7086;48.116;11.580;2023-02-16T01:10:47;96172.00;;;5.30
14023;BMP180;7086;48.116;11.580;2023-02-16T01:13:38;96147.00;;;5.30
14023;BMP180;7086;48.116;11.580;2023-02-16T01:21:38;96168.00;;;5.30
14023;BMP180;7086;48.116;11.580;2023-02-16T01:24:08;96219.00;;;5.30
14023;BMP180;7086;48.116;11.580;2023-02-16T01:26:47;96216.00;;;5.30
14023;BMP180;7086;48.116;11.580;2023-02-16T01:29:26;96245.00;;;5.00
14023;BMP180;7086;48.116;11.580;2023-02-16T01:32:11;96127.00;;;4.80
14023;BMP180;7086;48.116;11.580;2023-02-16T01:34:42;96139.00;;;5.10
14023;BMP180;7086;48.116;11.580;2023-02-16T01:37:53;96235.00;;;5.30
14023;BMP180;7086;48.116;11.580;2023-02-16T01:41:10;96263.00;;;5.00
14023;BMP180;7086;48.116;11.580;2023-02-16T01:44:28;96115.00;;;5.30
14023;BMP180;7086;48.116;11.580;2023-02-16T01:47:06;96232.00;;;5.30
14023;BMP180;7086;48.116;11.580;2023-02-16T01:49:36;96206.00;;;5.10
14023;BMP180;7086;48.116;11.580;2023-02-16T01:52:24;96232.00;;;5.00
14023;BMP180;7086;48.116;11.580;2023-02-16T01:55:05;96221.00;;;5.30
14023;BMP180;7086;48.116;11.580;2023-02-16T01:57:57;96271.00;;;5.30
14023;BMP180;7086;48.116;11.580;2023-02-16T02:04:26;96244.00;;;5.30
14023;BMP180;7086;48.116;11.580;2023-02-16T02:07:22;96098.00;;;5.20
14023;BMP180;7086;48.116;11.580;2023-02-16T02:10:14;96140.00;;;5.10
14023;BMP180;7086;48.116;11.580;2023-02-16T02:13:07;96230.00;;;4.90
14023;BMP180;7086;48.116;11.580;2023-02-16T02:15:36;96220.00;;;5.30
14023;BMP180;7086;48.116;11.580;2023-02-16T02:18:17;96218.00;;;5.30
14023;BMP180;7086;48.116;11.580;2023-02-16T02:21:25;96060.00;;;5.30
14023;BMP180;7086;48.116;11.580;2023-02-16T02:25:09;96212.00;;;5.30
14023;BMP180;7086;48.116;11.580;2023-02-16T02:27:53;96220.00;;;5.20
14023;BMP180;7086;48.116;11.580;2023-02-16T02:30:45;96120.00;;;5.30
14023;BMP180;7086;48.116;11.580;2023-02-16T02:33:38;96124.00;;;5.40
14023;BMP180;7086;48.116;11.580;2023-02-16T02:36:23;96235.00;;;5.40
14023;BMP180;7086;48.116;11.580;2023-02-16T02:39:06;96204.00;;;5.40
14023;BMP180;7086;48.116;11.580;2023-02-16T02:41:41;96230.00;;;5.30
14023;BMP180;7086;48.116;11.580;2023-02-16T02:44:42;96227.00;;;5.10
14023;BMP180;7086;48.116;11.580;2023-02-16T02:47:15;96209.00;;;5.10
14023;BMP180;7086;48.116;11.580;2023-02-16T02:49:49;96217.00;;;5.50
14023;BMP180;7086;48.116;11.580;2023-02-16T02:52:17;96202.00;;;5.50
14023;BMP180;7086;48.116;11.580;2023-02-16T02:54:47;96227.00;;;5.50
14023;BMP180;7086;48.116;11.580;2023-02-16T02:57:40;96213.00;;;5.40
14023;BMP180;7086;48.116;11.580;2023-02-16T03:00:46;96220.00;;;5.50
14023;BMP180;7086;48.116;11.580;2023-02-16T03:03:51;96117.00;;;5.50
14023;BMP180;7086;48.116;11.580;2023-02-16T03:06:46;96229.00;;;5.10
14023;BMP180;7086;48.116;11.580;2023-02-16T03:09:35;96059.00;;;5.50
14023;BMP180;7086;48.116;11.580;2023-02-16T03:12:19;96096.00;;;5.50
14023;BMP180;7086;48.116;11.580;2023-02-16T03:15:16;96112.00;;;5.40
14023;BMP180;7086;48.116;11.580;2023-02-16T03:17:53;96203.00;;;4.90
14023;BMP180;7086;48.116;11.580;2023-02-16T03:20:42;96175.00;;;5.40
14023;BMP180;7086;48.116;11.580;2023-02-16T03:23:28;96118.00;;;5.40
14023;BMP180;7086;48.116;11.580;2023-02-16T03:26:15;96194.00;;;5.40
14023;BMP180;7086;48.116;11.580;2023-02-16T03:29:06;96189.00;;;5.40
14023;BMP180;7086;48.116;11.580;2023-02-16T03:31:54;96197.00;;;5.40
14023;BMP180;7086;48.116;11.580;2023-02-16T03:34:25;96162.00;;;5.40
14023;BMP180;7086;48.116;11.580;2023-02-16T03:36:58;96199.00;;;5.40
14023;BMP180;7086;48.116;11.580;2023-02-16T03:39:40;96199.00;;;5.40
14023;BMP180;7086;48.116;11.580;2023-02-16T03:42:22;96175.00;;;5.40
14023;BMP180;7086;48.116;11.580;2023-02-16T03:45:15;96129.00;;;5.30
14023;BMP180;7086;48.116;11.580;2023-02-16T03:48:26;96134.00;;;5.10
14023;BMP180;7086;48.116;11.580;2023-02-16T03:51:24;96168.00;;;5.30
14023;BMP180;7086;48.116;11.580;2023-02-16T03:54:18;96113.00;;;5.30
14023;BMP180;7086;48.116;11.580;2023-02-16T03:57:23;96128.00;;;5.30
14023;BMP180;7086;48.116;11.580;2023-02-16T04:00:09;96085.00;;;5.20
14023;BMP180;7086;48.116;11.580;2023-02-16T04:02:39;96255.00;;;5.30
14023;BMP180;7086;48.116;11.580;2023-02-16T04:05:07;96218.00;;;5.30
14023;BMP180;7086;48.116;11.580;2023-02-16T04:07:36;96260.00;;;5.20
14023;BMP180;7086;48.116;11.580;2023-02-16T04:10:05;96149.00;;;5.30
14023;BMP180;7086;48.116;11.580;2023-02-16T04:12:33;96206.00;;;5.30
14023;BMP180;7086;48.116;11.580;2023-02-16T04:15:05;96100.00;;;5.30
14023;BMP180;7086;48.116;11.580;2023-02-16T04:17:36;96129.00;;;5.30
14023;BMP180;7086;48.116;11.580;2023-02-16T04:20:06;96115.00;;;5.10
14023;BMP180;7086;48.116;11.580;2023-02-16T04:22:35;96233.00;;;5.30
14023;BMP180;7086;48.116;11.580;2023-02-16T04:25:04;96181.00;;;5.30
14023;BMP180;7086;48.116;11.580;2023-02-16T04:27:32;96228.00;;;5.30
14023;BMP180;7086;48.116;11.580;2023-02-16T04:30:00;96258.00;;;5.10
14023;BMP180;7086;48.116;11.580;2023-02-16T04:32:28;96202.00;;;5.30
14023;BMP180;7086;48.116;11.580;2023-02-16T04:34:55;96228.00;;;5.30
14023;BMP180;7086;48.116;11.580;2023-02-16T04:38:05;96245.00;;;5.20
14023;BMP180;7086;48.116;11.580;2023-02-16T04:40:47;96211.00;;;4.60
14023;BMP180;7086;48.116;11.580;2023-02-16T04:43:15;96232.00;;;5.20
14023;BMP180;7086;48.116;11.580;2023-02-16T04:45:43;96222.00;;;5.20
14023;BMP180;7086;48.116;11.580;2023-02-16T04:48:11;96214.00;;;5.20
14023;BMP180;7086;48.116;11.580;2023-02-16T04:50:38;96158.00;;;5.20
14023;BMP180;7086;48.116;11.580;2023-02-16T04:53:07;96083.00;;;5.00
14023;BMP180;7086;48.116;11.580;2023-02-16T04:55:35;96217.00;;;5.20
14023;BMP180;7086;48.116;11.580;2023-02-16T04:58:03;96185.00;;;5.30
14023;BMP180;7086;48.116;11.580;2023-02-16T05:00:30;96219.00;;;5.30
14023;BMP180;7086;48.116;11.580;2023-02-16T05:05:42;96130.00;;;5.20
14023;BMP180;7086;48.116;11.580;2023-02-16T05:11:44;96170.00;;;5.20
14023;BMP180;7086;48.116;11.580;2023-02-16T05:14:31;96235.00;;;5.00
14023;BMP180;7086;48.116;11.580;2023-02-16T05:17:13;96249.00;;;5.10
14023;BMP180;7086;48.116;11.580;2023-02-16T05:19:48;96195.00;;;5.20
14023;BMP180;7086;48.116;11.580;2023-02-16T05:22:17;96235.00;;;5.30
14023;BMP180;7086;48.116;11.580;2023-02-16T05:24:46;96233.00;;;5.30
14023;BMP180;7086;48.116;11.580;2023-02-16T05:27:24;96072.00;;;5.30
14023;BMP180;7086;48.116;11.580;2023-02-16T05:30:08;96216.00;;;5.30
14023;BMP180;7086;48.116;11.580;2023-02-16T05:32:37;96218.00;;;5.30
14023;BMP180;7086;48.116;11.580;2023-02-16T05:35:36;96212.00;;;5.30
14023;BMP180;7086;48.116;11.580;2023-02-16T21:44:45;96180.00;;;13.90
14023;BMP180;7086;48.116;11.580;2023-02-16T21:47:34;96158.00;;;13.80
14023;BMP180;7086;48.116;11.580;2023-02-16T21:50:26;96188.00;;;13.90
14023;BMP180;7086;48.116;11.580;2023-02-16T21:53:10;96045.00;;;13.90
14023;BMP180;7086;48.116;11.580;2023-02-16T21:55:51;96182.00;;;14.00
14023;BMP180;7086;48.116;11.580;2023-02-16T22:30:15;96169.00;;;14.10
14023;BMP180;7086;48.116;11.580;2023-02-16T22:32:56;96171.00;;;14.10
14023;BMP180;7086;48.116;11.580;2023-02-16T22:35:38;96168.00;;;14.10
14023;BMP180;7086;48.116;11.580;2023-02-16T22:38:19;96068.00;;;14.10
14023;BMP180;7086;48.116;11.580;2023-02-16T22:41:04;96174.00;;;14.10
14023;BMP180;7086;48.116;11.580;2023-02-16T22:43:57;96189.00;;;14.10
14023;BMP180;7086;48.116;11.580;2023-02-16T22:50:39;96188.00;;;14.10
14023;BMP180;7086;48.116;11.580;2023-02-16T22:53:21;96176.00;;;14.10
14023;BMP180;7086;48.116;11.580;2023-02-16T22:56:06;96195.00;;;14.10
14023;BMP180;7086;48.116;11.580;2023-02-16T23:01:28;96065.00;;;14.10
14023;BMP180;7086;48.116;11.580;2023-02-16T23:04:00;96071.00;;;14.20
14023;BMP180;7086;48.116;11.580;2023-02-16T23:19:50;96031.00;;;14.20
14023;BMP180;7086;48.116;11.580;2023-02-16T23:22:18;96160.00;;;14.30
14023;BMP180;7086;48.116;11.580;2023-02-16T23:25:02;96096.00;;;14.30
14023;BMP180;7086;48.116;11.580;2023-02-16T23:27:48;96166.00;;;14.30
14023;BMP180;7086;48.116;11.580;2023-02-16T23:30:31;96171.00;;;14.30
14023;BMP180;7086;48.116;11.580;2023-02-16T23:33:02;96168.00;;;14.30
14023;BMP180;7086;48.116;11.580;2023-02-16T23:35:46;96148.00;;;14.30
14023;BMP180;7086;48.116;11.580;2023-02-16T23:38:27;96164.00;;;14.30
14023;BMP180;7086;48.116;11.580;2023-02-16T23:40:56;96100.00;;;14.30
14023;BMP180;7086;48.116;11.580;2023-02-16T23:43:24;96163.00;;;14.30
14023;BMP180;7086;48.116;11.580;2023-02-16T23:45:54;96166.00;;;14.30
14023;BMP180;7086;48.116;11.580;2023-02-16T23:48:25;96024.00;;;14.30
14023;BMP180;7086;48.116;11.580;2023-02-16T23:50:56;96170.00;;;14.30
14023;BMP180;7086;48.116;11.580;2023-02-16T23:53:27;96179.00;;;14.20
14023;BMP180;7086;48.116;11.580;2023-02-16T23:55:57;96123.00;;;14.30
14023;BMP180;7086;48.116;11.580;2023-02-16T23:58:27;96076.00;;;14.10
